createdAt,value
2023-02-22T00:00:43.689Z,5.90
2023-02-22T00:02:49.796Z,5.81
2023-02-22T00:04:54.731Z,5.79
2023-02-22T00:07:02.271Z,5.78
2023-02-22T00:09:09.455Z,5.88
2023-02-22T00:11:15.307Z,5.88
2023-02-22T00:13:22.939Z,5.87
2023-02-22T00:15:30.775Z,5.76
2023-02-22T00:17:38.585Z,5.71
2023-02-22T00:19:47.749Z,5.72
2023-02-22T00:21:55.696Z,5.69
2023-02-22T00:24:00.882Z,5.69
2023-02-22T00:26:09.997Z,5.67
2023-02-22T00:28:15.917Z,5.56
2023-02-22T00:30:23.392Z,5.49
2023-02-22T00:32:29.001Z,5.53
2023-02-22T00:34:38.310Z,5.41
2023-02-22T00:36:49.872Z,5.47
2023-02-22T00:38:57.557Z,5.48
2023-02-22T00:41:03.999Z,5.53
2023-02-22T00:43:10.137Z,5.50
2023-02-22T00:45:16.153Z,5.52
2023-02-22T00:47:21.372Z,5.50
2023-02-22T00:49:26.531Z,5.53
2023-02-22T00:51:34.433Z,5.39
2023-02-22T00:53:39.494Z,5.40
2023-02-22T00:55:44.905Z,5.36
2023-02-22T00:57:50.118Z,5.35
2023-02-22T00:59:55.262Z,5.41
2023-02-22T01:02:00.759Z,5.40
2023-02-22T01:04:09.272Z,5.32
2023-02-22T01:06:16.814Z,5.28
2023-02-22T01:08:25.447Z,5.15
2023-02-22T01:10:33.257Z,5.17
2023-02-22T01:12:39.231Z,5.14
2023-02-22T01:14:45.029Z,5.03
2023-02-22T01:16:50.910Z,5.06
2023-02-22T01:18:56.964Z,4.98
2023-02-22T01:21:04.817Z,4.93
2023-02-22T01:23:12.124Z,4.91
2023-02-22T01:25:23.501Z,5.10
2023-02-22T01:27:29.387Z,4.96
2023-02-22T01:29:34.594Z,5.04
2023-02-22T01:31:41.404Z,5.07
2023-02-22T01:33:48.609Z,5.08
2023-02-22T01:35:54.516Z,5.06
2023-02-22T01:38:00.608Z,5.10
2023-02-22T01:40:07.440Z,5.00
2023-02-22T01:42:15.003Z,5.04
2023-02-22T01:44:29.842Z,4.97
2023-02-22T01:46:34.594Z,4.80
2023-02-22T01:48:44.760Z,4.76
2023-02-22T01:50:56.956Z,4.79
2023-02-22T01:53:03.103Z,4.75
2023-02-22T01:55:08.854Z,4.66
2023-02-22T01:57:23.248Z,4.78
2023-02-22T01:59:28.969Z,4.79
2023-02-22T02:01:38.321Z,4.84
2023-02-22T02:03:46.907Z,4.87
2023-02-22T02:05:55.675Z,4.80
2023-02-22T02:08:05.007Z,4.80
2023-02-22T02:10:16.177Z,4.72
2023-02-22T02:12:26.395Z,4.67
2023-02-22T02:14:33.710Z,4.64
2023-02-22T02:16:45.523Z,4.55
2023-02-22T02:18:53.618Z,4.54
2023-02-22T02:21:37.087Z,4.50
2023-02-22T02:24:05.726Z,4.43
2023-02-22T02:26:40.618Z,4.40
2023-02-22T02:29:12.273Z,4.33
2023-02-22T02:31:46.602Z,4.30
2023-02-22T02:34:06.244Z,4.33
2023-02-22T02:36:18.992Z,4.35
2023-02-22T02:38:37.134Z,4.33
2023-02-22T02:40:49.661Z,4.44
2023-02-22T02:43:00.624Z,4.44
2023-02-22T02:45:12.516Z,4.37
2023-02-22T02:47:22.580Z,4.48
2023-02-22T02:49:34.952Z,4.48
2023-02-22T02:51:43.101Z,4.45
2023-02-22T02:53:52.195Z,4.47
2023-02-22T02:55:57.682Z,4.36
2023-02-22T02:58:04.914Z,4.35
2023-02-22T03:00:22.845Z,4.32
2023-02-22T03:02:41.714Z,4.40
2023-02-22T03:05:09.589Z,4.47
2023-02-22T03:07:26.996Z,4.37
2023-02-22T03:09:43.322Z,4.48
2023-02-22T03:12:01.687Z,4.30
2023-02-22T03:14:19.508Z,4.33
2023-02-22T03:16:34.509Z,4.24
2023-02-22T03:18:50.003Z,4.22
2023-02-22T03:21:11.227Z,4.30
2023-02-22T03:23:25.488Z,4.23
2023-02-22T03:25:37.010Z,4.18
2023-02-22T03:27:46.684Z,4.14
2023-02-22T03:29:55.646Z,4.17
2023-02-22T03:32:02.997Z,4.24
2023-02-22T03:34:13.797Z,4.26
2023-02-22T03:36:28.046Z,4.31
2023-02-22T03:38:40.039Z,4.36
2023-02-22T03:40:49.092Z,4.36
2023-02-22T03:42:59.328Z,4.38
2023-02-22T03:45:10.109Z,4.34
2023-02-22T03:47:21.544Z,4.26
2023-02-22T03:49:33.567Z,4.16
2023-02-22T03:51:43.547Z,4.25
2023-02-22T03:53:52.548Z,4.22
2023-02-22T03:56:00.549Z,4.27
2023-02-22T03:58:09.379Z,4.32
2023-02-22T04:00:20.322Z,4.30
2023-02-22T04:02:27.724Z,4.37
2023-02-22T04:04:33.666Z,4.34
2023-02-22T04:06:41.850Z,4.32
2023-02-22T04:08:47.169Z,4.35
2023-02-22T04:10:52.110Z,4.25
2023-02-22T04:12:56.975Z,4.27
2023-02-22T04:15:05.377Z,4.11
2023-02-22T04:17:13.192Z,4.12
2023-02-22T04:19:17.975Z,4.21
2023-02-22T04:21:22.955Z,4.19
2023-02-22T04:23:42.836Z,4.04
2023-02-22T04:25:48.003Z,4.10
2023-02-22T04:27:53.098Z,4.11
2023-02-22T04:29:58.120Z,4.13
2023-02-22T04:32:04.214Z,4.13
2023-02-22T04:34:09.255Z,4.09
2023-02-22T04:36:16.283Z,4.15
2023-02-22T04:38:21.866Z,4.18
2023-02-22T04:40:31.105Z,4.13
2023-02-22T04:42:36.068Z,4.10
2023-02-22T04:44:42.351Z,4.09
2023-02-22T04:46:50.090Z,4.10
2023-02-22T04:48:56.005Z,4.22
2023-02-22T04:51:00.895Z,4.25
2023-02-22T04:53:05.872Z,4.20
2023-02-22T04:55:13.201Z,4.21
2023-02-22T04:57:20.809Z,4.16
2023-02-22T04:59:26.177Z,4.21
2023-02-22T05:01:35.335Z,4.20
2023-02-22T05:03:42.821Z,4.23
2023-02-22T05:05:48.055Z,4.31
2023-02-22T05:07:53.623Z,4.26
2023-02-22T05:09:59.392Z,4.22
2023-02-22T05:12:04.974Z,4.20
2023-02-22T05:14:12.795Z,4.26
2023-02-22T05:16:18.010Z,4.18
2023-02-22T05:18:22.936Z,4.19
2023-02-22T05:20:36.293Z,4.15
2023-02-22T05:22:44.222Z,4.16
2023-02-22T05:24:52.479Z,4.11
2023-02-22T05:27:00.806Z,4.18
2023-02-22T05:29:07.785Z,4.24
2023-02-22T05:31:17.957Z,4.19
2023-02-22T05:33:23.596Z,4.23
2023-02-22T05:35:32.447Z,4.30
2023-02-22T05:37:38.038Z,4.29
2023-02-22T05:39:42.980Z,4.23
2023-02-22T05:41:48.089Z,4.20
2023-02-22T05:43:53.280Z,4.17
2023-02-22T05:46:00.454Z,4.18
2023-02-22T05:48:08.656Z,4.15
2023-02-22T05:50:14.165Z,4.23
2023-02-22T05:52:21.982Z,4.28
2023-02-22T05:54:26.884Z,4.27
2023-02-22T05:56:33.236Z,4.27
2023-02-22T05:58:38.632Z,4.30
2023-02-22T06:00:43.474Z,4.38
2023-02-22T06:02:49.090Z,4.42
2023-02-22T06:04:56.585Z,4.44
2023-02-22T06:07:03.846Z,4.43
2023-02-22T06:09:08.974Z,4.42
2023-02-22T06:11:13.933Z,4.38
2023-02-22T06:13:22.027Z,4.42
2023-02-22T06:15:29.724Z,4.43
2023-02-22T06:17:34.939Z,4.45
2023-02-22T06:19:40.539Z,4.42
2023-02-22T06:21:54.725Z,4.37
2023-02-22T06:23:59.769Z,4.35
2023-02-22T06:26:04.735Z,4.31
2023-02-22T06:28:09.739Z,4.35
2023-02-22T06:30:19.005Z,4.32
2023-02-22T06:32:24.156Z,4.29
2023-02-22T06:34:28.911Z,4.26
2023-02-22T06:36:39.621Z,4.23
2023-02-22T06:38:50.397Z,4.16
2023-02-22T06:40:55.630Z,4.23
2023-02-22T06:43:04.011Z,4.24
2023-02-22T06:45:11.842Z,4.27
2023-02-22T06:47:17.440Z,4.35
2023-02-22T06:49:23.860Z,4.39
2023-02-22T06:51:29.618Z,4.42
2023-02-22T06:53:35.631Z,4.38
2023-02-22T06:55:43.200Z,4.28
2023-02-22T06:57:48.227Z,4.22
2023-02-22T06:59:53.272Z,4.23
2023-02-22T07:01:59.381Z,4.32
2023-02-22T07:04:04.407Z,4.34
2023-02-22T07:06:11.249Z,4.31
2023-02-22T07:08:16.614Z,4.34
2023-02-22T07:10:25.688Z,4.32
2023-02-22T07:12:36.211Z,4.42
2023-02-22T07:14:42.064Z,4.45
2023-02-22T07:16:47.093Z,4.40
2023-02-22T07:18:51.944Z,4.45
2023-02-22T07:20:59.031Z,4.53
2023-02-22T07:23:04.693Z,4.52
2023-02-22T07:25:14.790Z,4.54
2023-02-22T07:27:20.335Z,4.48
2023-02-22T07:29:27.998Z,4.60
2023-02-22T07:31:38.517Z,4.60
2023-02-22T07:33:45.264Z,4.55
2023-02-22T07:35:52.106Z,4.60
2023-02-22T07:37:59.997Z,4.51
2023-02-22T07:40:04.977Z,4.50
2023-02-22T07:42:10.070Z,4.57
2023-02-22T07:44:15.370Z,4.55
2023-02-22T07:46:23.060Z,4.60
2023-02-22T07:48:31.070Z,4.60
2023-02-22T07:50:39.086Z,4.62
2023-02-22T07:52:49.790Z,4.59
2023-02-22T07:54:54.938Z,4.65
2023-02-22T07:56:59.983Z,4.68
2023-02-22T07:59:04.908Z,4.69
2023-02-22T08:01:11.072Z,4.70
2023-02-22T08:03:21.751Z,4.69
2023-02-22T08:05:29.799Z,4.76
2023-02-22T08:07:34.755Z,4.76
2023-02-22T08:09:39.764Z,4.77
2023-02-22T08:11:45.139Z,4.83
2023-02-22T08:13:50.164Z,4.89
2023-02-22T08:15:56.311Z,4.84
2023-02-22T08:18:02.761Z,4.90
2023-02-22T08:20:11.282Z,4.93
2023-02-22T08:22:16.415Z,4.95
2023-02-22T08:24:21.678Z,4.99
2023-02-22T08:26:26.684Z,4.98
2023-02-22T08:28:31.916Z,5.06
2023-02-22T08:30:40.299Z,4.99
2023-02-22T08:32:48.106Z,4.99
2023-02-22T08:34:53.290Z,5.03
2023-02-22T08:37:01.158Z,5.08
2023-02-22T08:39:06.201Z,5.14
2023-02-22T08:41:12.273Z,5.17
2023-02-22T08:43:17.436Z,5.26
2023-02-22T08:45:22.968Z,5.34
2023-02-22T08:47:29.137Z,5.36
2023-02-22T08:49:34.409Z,5.43
2023-02-22T08:51:40.883Z,5.46
2023-02-22T08:53:48.615Z,5.49
2023-02-22T08:55:53.695Z,5.53
2023-02-22T08:57:59.703Z,5.53
2023-02-22T09:00:04.948Z,5.45
2023-02-22T09:02:20.833Z,5.44
2023-02-22T09:04:26.247Z,5.53
2023-02-22T09:06:31.781Z,5.42
2023-02-22T09:08:44.274Z,5.54
2023-02-22T09:10:53.566Z,5.49
2023-02-22T09:13:01.372Z,5.51
2023-02-22T09:15:06.957Z,5.57
2023-02-22T09:17:11.893Z,5.48
2023-02-22T09:19:17.032Z,5.56
2023-02-22T09:21:22.011Z,5.70
2023-02-22T09:23:27.615Z,5.80
2023-02-22T09:25:34.478Z,5.75
2023-02-22T09:27:43.721Z,5.76
2023-02-22T09:29:51.432Z,5.84
2023-02-22T09:32:00.098Z,5.92
2023-02-22T09:34:08.934Z,5.99
2023-02-22T09:36:15.290Z,5.96
2023-02-22T09:38:23.137Z,6.00
2023-02-22T09:40:31.001Z,6.05
2023-02-22T09:42:45.878Z,5.97
2023-02-22T09:47:11.184Z,5.94
2023-02-22T09:49:26.312Z,5.97
2023-02-22T09:51:38.574Z,5.94
2023-02-22T09:53:52.652Z,6.04
2023-02-22T09:55:59.779Z,6.14
2023-02-22T09:58:16.542Z,6.24
2023-02-22T10:00:24.495Z,6.20
2023-02-22T10:02:34.843Z,6.20
2023-02-22T10:04:48.066Z,6.26
2023-02-22T10:07:06.302Z,6.30
2023-02-22T10:09:18.368Z,6.29
2023-02-22T10:11:38.689Z,6.26
2023-02-22T10:13:57.568Z,6.18
2023-02-22T10:16:07.233Z,6.23
2023-02-22T10:18:47.154Z,6.31
2023-02-22T10:21:00.190Z,6.38
2023-02-22T10:23:15.292Z,6.45
2023-02-22T10:25:24.874Z,6.48
2023-02-22T10:27:42.928Z,6.59
2023-02-22T10:29:54.304Z,6.61
2023-02-22T10:32:05.580Z,6.66
2023-02-22T10:34:17.676Z,6.80
2023-02-22T10:36:24.990Z,6.77
2023-02-22T10:38:36.704Z,6.80
2023-02-22T10:40:45.263Z,6.85
2023-02-22T10:42:50.322Z,6.90
2023-02-22T10:44:58.308Z,6.94
2023-02-22T10:47:04.595Z,7.09
2023-02-22T10:49:11.211Z,7.19
2023-02-22T10:51:16.633Z,7.36
2023-02-22T10:53:22.081Z,7.50
2023-02-22T10:55:27.583Z,7.56
2023-02-22T10:57:35.115Z,7.68
2023-02-22T10:59:43.011Z,7.61
2023-02-22T11:01:52.419Z,7.65
2023-02-22T11:04:14.351Z,7.70
2023-02-22T11:06:23.811Z,7.73
2023-02-22T11:08:33.055Z,7.69
2023-02-22T11:10:40.211Z,7.73
2023-02-22T11:12:49.022Z,7.91
2023-02-22T11:14:54.320Z,7.96
2023-02-22T11:17:11.371Z,7.95
2023-02-22T11:19:24.400Z,7.95
2023-02-22T11:21:29.953Z,8.12
2023-02-22T11:23:35.759Z,8.10
2023-02-22T11:25:45.531Z,7.99
2023-02-22T11:27:51.187Z,8.12
2023-02-22T11:29:57.015Z,8.07
2023-02-22T11:32:14.841Z,8.12
2023-02-22T11:34:39.000Z,8.15
2023-02-22T11:36:47.035Z,8.08
2023-02-22T11:39:00.873Z,8.17
2023-02-22T11:41:20.503Z,8.16
2023-02-22T11:43:25.981Z,8.27
2023-02-22T11:45:31.113Z,8.15
2023-02-22T11:47:39.008Z,8.20
2023-02-22T11:49:49.296Z,8.17
2023-02-22T11:52:10.154Z,8.16
2023-02-22T11:54:41.329Z,8.12
2023-02-22T11:56:51.044Z,8.28
2023-02-22T11:59:08.298Z,8.32
2023-02-22T12:01:25.093Z,8.30
2023-02-22T12:03:53.448Z,8.33
2023-02-22T12:06:20.894Z,8.50
2023-02-22T12:08:33.095Z,8.65
2023-02-22T12:10:55.524Z,8.81
2023-02-22T12:13:17.995Z,8.81
2023-02-22T12:15:31.951Z,8.84
2023-02-22T12:17:59.461Z,8.76
2023-02-22T12:20:21.759Z,8.76
2023-02-22T12:22:30.257Z,9.01
2023-02-22T12:24:41.795Z,8.91
2023-02-22T12:26:51.598Z,8.99
2023-02-22T12:29:01.609Z,9.05
2023-02-22T12:31:24.267Z,9.07
2023-02-22T12:33:33.133Z,9.13
2023-02-22T12:35:44.348Z,9.19
2023-02-22T12:38:01.939Z,9.12
2023-02-22T12:40:13.740Z,9.17
2023-02-22T12:42:21.750Z,9.14
2023-02-22T12:44:31.950Z,9.21
2023-02-22T12:46:45.751Z,9.23
2023-02-22T12:48:58.991Z,9.18
2023-02-22T12:51:18.183Z,9.19
2023-02-22T12:53:31.396Z,9.11
2023-02-22T12:55:42.395Z,9.21
2023-02-22T12:57:54.997Z,9.22
2023-02-22T13:00:07.174Z,9.28
2023-02-22T13:02:21.657Z,9.29
2023-02-22T13:04:26.969Z,9.28
2023-02-22T13:06:45.374Z,9.13
2023-02-22T13:09:09.758Z,9.29
2023-02-22T13:11:22.002Z,9.28
2023-02-22T13:13:38.792Z,9.42
2023-02-22T13:15:50.063Z,9.39
2023-02-22T13:18:05.216Z,9.40
2023-02-22T13:20:18.651Z,9.59
2023-02-22T13:22:32.734Z,9.59
2023-02-22T13:24:46.515Z,9.61
2023-02-22T13:26:58.549Z,9.65
2023-02-22T13:29:11.426Z,9.66
2023-02-22T13:31:31.261Z,9.72
2023-02-22T13:33:54.302Z,9.65
2023-02-22T13:36:13.610Z,9.41
2023-02-22T13:38:48.541Z,9.56
2023-02-22T13:41:18.562Z,9.66
2023-02-22T13:43:52.901Z,9.79
2023-02-22T13:46:27.669Z,9.67
2023-02-22T13:49:05.687Z,9.65
2023-02-22T13:51:18.731Z,9.71
2023-02-22T13:53:33.043Z,9.70
2023-02-22T13:55:39.850Z,9.89
2023-02-22T13:57:48.752Z,9.88
2023-02-22T14:00:24.651Z,9.87
2023-02-22T14:02:39.801Z,9.85
2023-02-22T14:04:45.290Z,9.82
2023-02-22T14:06:51.360Z,9.82
2023-02-22T14:08:58.992Z,9.71
2023-02-22T14:11:06.082Z,9.75
2023-02-22T14:13:11.612Z,9.73
2023-02-22T14:15:29.149Z,9.64
2023-02-22T14:17:35.184Z,9.69
2023-02-22T14:19:40.570Z,9.64
2023-02-22T14:22:03.635Z,9.67
2023-02-22T14:24:20.153Z,9.58
2023-02-22T14:26:31.360Z,9.62
2023-02-22T14:28:41.641Z,9.64
2023-02-22T14:30:48.599Z,9.69
2023-02-22T14:32:53.780Z,9.70
2023-02-22T14:35:01.196Z,9.68
2023-02-22T14:37:14.279Z,9.68
2023-02-22T14:39:41.620Z,9.67
2023-02-22T14:41:53.924Z,9.70
2023-02-22T14:44:02.564Z,9.48
2023-02-22T14:46:13.392Z,9.47
2023-02-22T14:48:27.141Z,9.51
2023-02-22T14:50:44.636Z,9.54
2023-02-22T14:52:58.799Z,9.54
2023-02-22T14:55:19.260Z,9.51
2023-02-22T14:57:29.733Z,9.44
2023-02-22T14:59:37.211Z,9.38
2023-02-22T15:01:58.369Z,9.41
2023-02-22T15:04:25.670Z,9.51
2023-02-22T15:06:32.139Z,9.43
2023-02-22T15:08:43.141Z,9.50
2023-02-22T15:10:54.613Z,9.40
2023-02-22T15:13:12.874Z,9.34
2023-02-22T15:15:22.132Z,9.34
2023-02-22T15:17:30.992Z,9.34
2023-02-22T15:19:38.627Z,9.36
2023-02-22T15:21:50.224Z,9.28
2023-02-22T15:23:57.685Z,9.26
2023-02-22T15:26:05.634Z,9.19
2023-02-22T15:28:18.017Z,9.21
2023-02-22T15:30:27.281Z,9.22
2023-02-22T15:32:36.399Z,9.19
2023-02-22T15:34:42.816Z,9.21
2023-02-22T15:36:51.529Z,9.22
2023-02-22T15:38:59.008Z,9.12
2023-02-22T15:41:08.778Z,9.08
2023-02-22T15:43:24.540Z,9.19
2023-02-22T15:45:29.739Z,9.18
2023-02-22T15:47:34.860Z,9.12
2023-02-22T15:49:40.328Z,9.08
2023-02-22T15:51:49.318Z,9.13
2023-02-22T15:53:54.380Z,8.98
2023-02-22T15:56:01.967Z,8.92
2023-02-22T15:58:22.695Z,8.90
2023-02-22T16:00:36.176Z,8.92
2023-02-22T16:02:42.492Z,8.95
2023-02-22T16:04:59.063Z,8.87
2023-02-22T16:07:17.232Z,8.89
2023-02-22T16:09:26.283Z,8.78
2023-02-22T16:11:35.354Z,8.76
2023-02-22T16:13:45.095Z,8.72
2023-02-22T16:15:57.800Z,8.68
2023-02-22T16:18:20.425Z,8.62
2023-02-22T16:20:37.546Z,8.60
2023-02-22T16:22:49.806Z,8.40
2023-02-22T16:24:54.761Z,8.46
2023-02-22T16:27:23.937Z,8.36
2023-02-22T16:29:31.504Z,8.33
2023-02-22T16:31:38.715Z,8.35
2023-02-22T16:33:46.668Z,8.34
2023-02-22T16:35:58.431Z,8.34
2023-02-22T16:38:04.790Z,8.36
2023-02-22T16:40:14.101Z,8.31
2023-02-22T16:42:24.404Z,8.27
2023-02-22T16:44:32.432Z,8.20
2023-02-22T16:46:38.177Z,8.19
2023-02-22T16:48:46.933Z,8.18
2023-02-22T16:50:53.263Z,8.25
2023-02-22T16:52:59.246Z,8.23
2023-02-22T16:55:04.719Z,8.21
2023-02-22T16:57:12.977Z,8.16
2023-02-22T16:59:19.502Z,8.19
2023-02-22T17:01:27.441Z,8.10
2023-02-22T17:03:32.381Z,8.06
2023-02-22T17:05:38.392Z,8.08
2023-02-22T17:07:44.290Z,8.04
2023-02-22T17:09:52.028Z,8.02
2023-02-22T17:11:58.137Z,8.04
2023-02-22T17:14:02.862Z,7.98
2023-02-22T17:16:08.630Z,7.95
2023-02-22T17:18:22.690Z,7.99
2023-02-22T17:20:32.861Z,7.99
2023-02-22T17:22:41.467Z,7.95
2023-02-22T17:24:49.016Z,7.89
2023-02-22T17:26:55.114Z,7.84
2023-02-22T17:28:59.834Z,7.89
2023-02-22T17:31:04.845Z,7.84
2023-02-22T17:33:11.660Z,7.82
2023-02-22T17:35:20.366Z,7.91
2023-02-22T17:37:25.719Z,7.91
2023-02-22T17:39:30.908Z,7.85
2023-02-22T17:41:35.816Z,7.86
2023-02-22T17:43:43.876Z,7.83
2023-02-22T17:45:49.313Z,7.80
2023-02-22T17:47:55.678Z,7.77
2023-02-22T17:50:00.616Z,7.83
2023-02-22T17:52:08.713Z,7.80
2023-02-22T17:54:14.376Z,7.81
2023-02-22T17:56:21.338Z,7.86
2023-02-22T17:58:31.041Z,7.85
2023-02-22T18:00:39.981Z,7.82
2023-02-22T18:02:46.668Z,7.82
2023-02-22T18:04:51.598Z,7.79
2023-02-22T18:06:56.510Z,7.81
2023-02-22T18:09:10.904Z,7.77
2023-02-22T18:11:16.729Z,7.78
2023-02-22T18:13:22.908Z,7.76
2023-02-22T18:15:28.311Z,7.76
2023-02-22T18:17:34.073Z,7.74
2023-02-22T18:19:39.220Z,7.74
2023-02-22T18:21:45.156Z,7.79
2023-02-22T18:23:54.184Z,7.74
2023-02-22T18:26:11.219Z,7.77
2023-02-22T18:28:16.761Z,7.76
2023-02-22T18:30:22.095Z,7.81
2023-02-22T18:32:30.994Z,7.79
2023-02-22T18:34:35.993Z,7.80
2023-02-22T18:36:43.027Z,7.75
2023-02-22T18:38:47.956Z,7.74
2023-02-22T18:41:00.779Z,7.74
2023-02-22T18:43:08.688Z,7.73
2023-02-22T18:45:14.398Z,7.73
2023-02-22T18:47:19.521Z,7.72
2023-02-22T18:49:26.411Z,7.70
2023-02-22T18:51:31.259Z,7.70
2023-02-22T18:53:36.945Z,7.69
2023-02-22T18:55:41.816Z,7.71
2023-02-22T18:57:47.757Z,7.66
2023-02-22T18:59:55.630Z,7.61
2023-02-22T19:04:12.791Z,7.58
2023-02-22T19:06:19.790Z,7.56
2023-02-22T19:08:25.487Z,7.55
2023-02-22T19:10:33.450Z,7.53
2023-02-22T19:12:41.290Z,7.54
2023-02-22T19:14:49.042Z,7.51
2023-02-22T19:16:59.286Z,7.52
2023-02-22T19:19:04.265Z,7.53
2023-02-22T19:21:11.544Z,7.53
2023-02-22T19:23:16.650Z,7.51
2023-02-22T19:25:21.751Z,7.48
2023-02-22T19:27:28.195Z,7.44
2023-02-22T19:29:39.198Z,7.48
2023-02-22T19:31:46.643Z,7.52
2023-02-22T19:33:55.317Z,7.45
2023-02-22T19:36:02.905Z,7.44
2023-02-22T19:38:08.131Z,7.42
2023-02-22T19:40:17.777Z,7.42
2023-02-22T19:42:23.004Z,7.40
2023-02-22T19:44:29.603Z,7.41
2023-02-22T19:46:35.243Z,7.37
2023-02-22T19:48:42.922Z,7.37
2023-02-22T19:50:57.900Z,7.40
2023-02-22T19:53:02.939Z,7.39
2023-02-22T19:55:13.683Z,7.40
2023-02-22T19:57:18.635Z,7.40
2023-02-22T19:59:24.256Z,7.39
2023-02-22T20:01:33.125Z,7.38
2023-02-22T20:03:38.916Z,7.39
2023-02-22T20:05:47.411Z,7.33
2023-02-22T20:07:55.239Z,7.31
2023-02-22T20:10:00.305Z,7.30
2023-02-22T20:12:06.132Z,7.32
2023-02-22T20:14:18.417Z,7.28
2023-02-22T20:16:23.188Z,7.23
2023-02-22T20:18:28.180Z,7.21
2023-02-22T20:20:33.632Z,7.22
2023-02-22T20:22:41.237Z,7.20
2023-02-22T20:24:52.318Z,7.19
2023-02-22T20:26:57.657Z,7.21
2023-02-22T20:29:04.339Z,7.29
2023-02-22T20:31:15.575Z,7.19
2023-02-22T20:33:21.424Z,7.18
2023-02-22T20:35:28.010Z,7.23
2023-02-22T20:37:39.508Z,7.19
2023-02-22T20:39:48.141Z,7.15
2023-02-22T20:41:54.788Z,7.19
2023-02-22T20:44:00.844Z,7.17
2023-02-22T20:46:06.165Z,7.22
2023-02-22T20:48:12.368Z,7.18
2023-02-22T20:50:17.585Z,7.18
2023-02-22T20:52:22.707Z,7.15
2023-02-22T20:54:27.864Z,7.17
2023-02-22T20:56:35.790Z,7.13
2023-02-22T20:58:41.297Z,7.14
2023-02-22T21:00:46.377Z,7.11
2023-02-22T21:02:51.687Z,7.08
2023-02-22T21:04:56.848Z,7.07
2023-02-22T21:07:02.527Z,7.06
2023-02-22T21:09:09.937Z,7.03
2023-02-22T21:11:16.200Z,7.01
2023-02-22T21:13:23.908Z,7.02
2023-02-22T21:15:29.644Z,7.02
2023-02-22T21:17:34.656Z,7.01
2023-02-22T21:19:39.681Z,7.05
2023-02-22T21:21:45.125Z,7.03
2023-02-22T21:23:52.749Z,7.02
2023-02-22T21:25:57.871Z,7.06
2023-02-22T21:28:02.637Z,7.02
2023-02-22T21:30:13.882Z,7.02
2023-02-22T21:32:19.773Z,7.03
2023-02-22T21:34:26.001Z,7.06
2023-02-22T21:36:32.106Z,7.08
2023-02-22T21:38:40.146Z,7.07
2023-02-22T21:40:45.580Z,7.06
2023-02-22T21:42:51.201Z,7.04
2023-02-22T21:44:56.537Z,7.03
2023-02-22T21:47:04.126Z,7.07
2023-02-22T21:49:09.330Z,7.08
2023-02-22T21:51:17.031Z,7.04
2023-02-22T21:53:22.791Z,7.07
2023-02-22T21:55:27.924Z,7.03
2023-02-22T21:57:32.842Z,7.01
2023-02-22T21:59:39.881Z,7.01
2023-02-22T22:01:47.941Z,6.99
2023-02-22T22:03:55.526Z,7.01
2023-02-22T22:06:00.440Z,7.03
2023-02-22T22:08:07.660Z,7.00
2023-02-22T22:10:18.463Z,6.99
2023-02-22T22:12:26.023Z,6.97
2023-02-22T22:14:33.669Z,6.98
2023-02-22T22:16:38.500Z,6.98
2023-02-22T22:18:46.955Z,6.96
2023-02-22T22:20:56.114Z,6.97
2023-02-22T22:23:01.343Z,6.99
2023-02-22T22:25:08.654Z,6.97
2023-02-22T22:27:13.886Z,6.97
2023-02-22T22:29:19.088Z,6.98
2023-02-22T22:31:26.248Z,6.95
2023-02-22T22:33:31.699Z,6.96
2023-02-22T22:35:37.239Z,6.96
2023-02-22T22:37:51.440Z,6.96
2023-02-22T22:39:56.372Z,6.94
2023-02-22T22:42:02.061Z,6.91
2023-02-22T22:44:10.201Z,6.93
2023-02-22T22:46:16.559Z,6.93
2023-02-22T22:48:22.813Z,6.94
2023-02-22T22:50:28.867Z,6.92
2023-02-22T22:52:35.353Z,6.90
2023-02-22T22:54:43.755Z,6.88
2023-02-22T22:56:51.852Z,6.88
2023-02-22T22:58:59.158Z,6.87
2023-02-22T23:01:09.680Z,6.88
2023-02-22T23:03:21.693Z,6.88
2023-02-22T23:05:28.999Z,6.86
2023-02-22T23:07:34.645Z,6.83
2023-02-22T23:09:43.791Z,6.80
2023-02-22T23:11:51.159Z,6.79
2023-02-22T23:13:57.327Z,6.77
2023-02-22T23:16:02.236Z,6.77
2023-02-22T23:18:07.619Z,6.77
2023-02-22T23:20:16.510Z,6.77
2023-02-22T23:22:21.555Z,6.77
2023-02-22T23:24:27.537Z,6.78
2023-02-22T23:26:35.503Z,6.79
2023-02-22T23:28:42.777Z,6.78
2023-02-22T23:30:48.027Z,6.78
2023-02-22T23:32:53.217Z,6.78
2023-02-22T23:34:58.713Z,6.77
2023-02-22T23:37:03.561Z,6.76
2023-02-22T23:39:09.378Z,6.76
2023-02-22T23:41:17.522Z,6.76
2023-02-22T23:43:26.198Z,6.76
2023-02-22T23:45:34.303Z,6.78
2023-02-22T23:47:43.454Z,6.76
2023-02-22T23:49:49.717Z,6.78
2023-02-22T23:51:55.350Z,6.77
2023-02-22T23:54:00.313Z,6.77
2023-02-22T23:56:10.777Z,6.75
2023-02-22T23:58:15.897Z,6.75
